עמוד ראשי
METAR-TAF:

METAR-TAF

שדות תעופה :

נמל התעופה רמון

אילת, ישראל

קו רוחב: 29-43-25N, קו אורך: 35-00-41E, גובה: 88מטר

תצפית מזג אוויר נוכחית

הדו"ח נערך לפני 13דקות, בשעה 09:50 UTC
רוח 13קשר מכיוון צפון
טמפרטורת 38 צלסיוס
לחות 26%
לחץ 1006 hPa
ראות 10 קילומטר או יותר
ללא עננים שבסיסם נמוך מ 5000 רגל או קומולונימבוס

METAR: LLER 190950Z 01013KT CAVOK 38/15 Q1006

זמן: 13:03 (10:03 UTC)

תחזית

הדו"ח נערך לפני 5 שעות ו 2דקות, בשעה 05:01 UTC
תחזית בתוקף מ 19 ב 06 UTC עד 20 ב 06 UTC
רוח 15קשר מכיוון צפון/צפון-מזרח
ראות 10 קילומטר או יותר
ללא עננים שבסיסם נמוך מ 5000 רגל או קומולונימבוס
יעשה מ
19 ב 18 UTC עד 19 ב 20 UTC
רוח 12קשר מכיוון צפון

TAF: LLER 190501Z 1906/2006 02015KT CAVOK BECMG 1918/1920 35012KT TX42/1913Z TN28/2003Z

תצפיות ותחזיות מזג אוויר לגבי יותר מ- 4,000 שדות תעופה ברחבי העולם. דוחות METAR ו- TAF.

התחנות הזמינות מסומנות בנקודות צהובות ואדומות על גבי המפה.

העבר את העכבר לנקודה הצבעונית על מנת לראות את שם התחנה.

לאחר מכן, לחץ כדי לראות את תוכן ואת תחזיות מזג האוויר.

כדי לשנות את המפה: לחץ על הכפתורים הירוקים עם הפלוס השחור כדי להתקרב; על הכפתור הירוק עם המקף כדי להתרחק; או בחיצים הירוקים למפות סמוכות.


METAR-TAF: